Time;durP1;ratioP1;P1;durP2;ratioP2;P2;SDS_P1;SDS_P2;PMS_P1;PMS_P2;Temp;Humidity;BMP_temperature;BMP_pressure;BME280_temperature;BME280_humidity;BME280_pressure;Samples;Min_cycle;Max_cycle;Signal;HPM_P1;HPM_P2
2021/08/12 00:01:16;;;;;;;;;;;;;;;;;;4945187;28;19966;-81
2021/08/12 00:03:43;;;;;;;;;;;;;;;;;;4941451;28;20662;-80
2021/08/12 00:06:09;;;;;;;;;;;;;;;;;;4936899;28;19950;-81
2021/08/12 00:08:35;;;;;;;;;;;;;;;;;;4943296;28;19953;-81
2021/08/12 00:11:02;;;;;;;;;;;;;;;;;;4941591;28;19962;-80
2021/08/12 00:13:28;;;;;;;;;;;;;;;;;;4944837;28;20009;-80
2021/08/12 00:15:54;;;;;;;;;;;;;;;;;;4913692;29;20512;-80
2021/08/12 00:18:20;;;;;;;;;;;;;;;;;;4939064;28;19954;-81
2021/08/12 00:20:46;;;;;;;;;;;;;;;;;;4941170;29;19985;-80
2021/08/12 00:23:13;;;;;;;;;;;;;;;;;;4945975;28;19962;-80
2021/08/12 00:25:39;;;;;;;;;;;;;;;;;;4943617;28;20054;-80
2021/08/12 00:28:05;;;;;;;;;;;;;;;;;;4941871;28;19957;-80
2021/08/12 00:30:31;;;;;;;;;;;;;;;;;;4933129;29;19957;-80
2021/08/12 00:32:57;;;;;;;;;;;;;;;;;;4949269;28;19954;-80
2021/08/12 00:35:24;;;;;;;;;;;;;;;;;;4958205;28;20058;-81
2021/08/12 00:37:50;;;;;;;;;;;;;;;;;;4949005;28;20397;-81
2021/08/12 00:40:16;;;;;;;;;;;;;;;;;;4953400;28;19934;-81
2021/08/12 00:42:42;;;;;;;;;;;;;;;;;;4960463;28;19922;-81
2021/08/12 00:45:08;;;;;;;;;;;;;;;;;;4957740;28;19957;-81
2021/08/12 00:47:35;;;;;;;;;;;;;;;;;;4944672;28;19977;-80
2021/08/12 00:50:01;;;;;;;;;;;;;;;;;;4913592;29;20462;-80
2021/08/12 00:52:27;;;;;;;;;;;;;;;;;;4938746;28;20635;-80
2021/08/12 00:54:54;;;;;;;;;;;;;;;;;;4945426;28;19960;-81
2021/08/12 00:57:20;;;;;;;;;;;;;;;;;;4946618;28;19961;-81
2021/08/12 00:59:48;;;;;;;;;;;;;;;;;;4942474;28;19965;-81
2021/08/12 01:02:14;;;;;;;;;;;;;;;;;;4941040;28;19976;-80
2021/08/12 01:04:40;;;;;;;;;;;;;;;;;;4947424;28;19957;-80
2021/08/12 01:07:06;;;;;;;;;;;;;;;;;;4940015;28;20144;-79
2021/08/12 01:09:32;;;;;;;;;;;;;;;;;;4948338;28;20310;-81
2021/08/12 01:11:58;;;;;;;;;;;;;;;;;;4914715;29;19922;-80
2021/08/12 01:14:25;;;;;;;;;;;;;;;;;;4952012;28;19954;-80
2021/08/12 01:16:51;;;;;;;;;;;;;;;;;;4949895;28;19969;-80
2021/08/12 01:19:17;;;;;;;;;;;;;;;;;;4934141;28;19926;-80
2021/08/12 01:21:43;;;;;;;;;;;;;;;;;;4954153;28;19926;-80
2021/08/12 01:24:10;;;;;;;;;;;;;;;;;;4949579;28;19931;-79
2021/08/12 01:26:36;;;;;;;;;;;;;;;;;;4947493;28;19919;-80
2021/08/12 01:29:02;;;;;;;;;;;;;;;;;;4945132;28;20611;-79
2021/08/12 01:31:28;;;;;;;;;;;;;;;;;;4933124;28;19989;-79
2021/08/12 01:33:54;;;;;;;;;;;;;;;;;;4930839;28;20437;-79
2021/08/12 01:36:20;;;;;;;;;;;;;;;;;;4946630;28;19922;-79
2021/08/12 01:38:47;;;;;;;;;;;;;;;;;;4940672;28;20045;-80
2021/08/12 01:41:13;;;;;;;;;;;;;;;;;;4939862;29;19950;-79
2021/08/12 01:43:39;;;;;;;;;;;;;;;;;;4950863;28;19977;-80
2021/08/12 01:46:05;;;;;;;;;;;;;;;;;;4952328;28;19965;-79
2021/08/12 01:48:32;;;;;;;;;;;;;;;;;;4942887;28;19965;-79
2021/08/12 01:50:58;;;;;;;;;;;;;;;;;;4940155;28;19958;-80
2021/08/12 01:53:25;;;;;;;;;;;;;;;;;;4940486;28;19957;-80
2021/08/12 01:55:51;;;;;;;;;;;;;;;;;;4927971;29;19958;-80
2021/08/12 01:58:17;;;;;;;;;;;;;;;;;;4943404;28;20444;-81
2021/08/12 02:00:43;;;;;;;;;;;;;;;;;;4935064;28;19962;-81
2021/08/12 02:03:10;;;;;;;;;;;;;;;;;;4944982;28;19958;-81
2021/08/12 02:05:36;;;;;;;;;;;;;;;;;;4949127;28;19961;-80
2021/08/12 02:08:02;;;;;;;;;;;;;;;;;;4947989;28;19958;-79
2021/08/12 02:10:29;;;;;;;;;;;;;;;;;;4941158;28;19958;-80
2021/08/12 02:12:55;;;;;;;;;;;;;;;;;;4939974;28;19972;-80
2021/08/12 02:15:22;;;;;;;;;;;;;;;;;;4939535;29;19954;-80
2021/08/12 02:17:48;;;;;;;;;;;;;;;;;;4942931;28;19961;-81
2021/08/12 02:20:14;;;;;;;;;;;;;;;;;;4941789;28;19977;-80
2021/08/12 02:22:40;;;;;;;;;;;;;;;;;;4943165;28;19973;-79
2021/08/12 02:25:07;;;;;;;;;;;;;;;;;;4941424;28;20663;-80
2021/08/12 02:27:34;;;;;;;;;;;;;;;;;;4943193;28;19974;-79
2021/08/12 02:30:00;;;;;;;;;;;;;;;;;;4935878;28;19958;-79
2021/08/12 02:32:26;;;;;;;;;;;;;;;;;;4941861;28;19968;-79
2021/08/12 02:34:53;;;;;;;;;;;;;;;;;;4947407;28;19954;-79
2021/08/12 02:37:19;;;;;;;;;;;;;;;;;;4946413;28;19961;-79
2021/08/12 02:39:45;;;;;;;;;;;;;;;;;;4949945;28;19966;-80
2021/08/12 02:42:11;;;;;;;;;;;;;;;;;;4945597;28;20583;-82
2021/08/12 02:44:37;;;;;;;;;;;;;;;;;;4919075;28;19965;-80
2021/08/12 02:47:04;;;;;;;;;;;;;;;;;;4937431;28;19992;-80
2021/08/12 02:49:30;;;;;;;;;;;;;;;;;;4944845;28;20418;-80
2021/08/12 02:51:56;;;;;;;;;;;;;;;;;;4942348;29;19961;-79
2021/08/12 02:54:22;;;;;;;;;;;;;;;;;;4927324;28;19954;-79
2021/08/12 02:56:48;;;;;;;;;;;;;;;;;;4944872;28;19959;-79
2021/08/12 02:59:15;;;;;;;;;;;;;;;;;;4942486;28;19973;-79
2021/08/12 03:01:41;;;;;;;;;;;;;;;;;;4950232;28;20045;-79
2021/08/12 03:04:07;;;;;;;;;;;;;;;;;;4934527;28;20005;-79
2021/08/12 03:06:33;;;;;;;;;;;;;;;;;;4945954;28;19958;-80
2021/08/12 03:09:00;;;;;;;;;;;;;;;;;;4933196;28;19954;-79
2021/08/12 03:11:26;;;;;;;;;;;;;;;;;;4942939;28;19966;-79
2021/08/12 03:13:53;;;;;;;;;;;;;;;;;;4948745;28;20382;-79
2021/08/12 03:16:20;;;;;;;;;;;;;;;;;;4930250;29;19977;-80
2021/08/12 03:18:46;;;;;;;;;;;;;;;;;;4945547;28;19954;-79
2021/08/12 03:21:12;;;;;;;;;;;;;;;;;;4940322;28;19969;-80
2021/08/12 03:23:38;;;;;;;;;;;;;;;;;;4945159;28;19957;-79
2021/08/12 03:26:04;;;;;;;;;;;;;;;;;;4928403;28;19970;-80
2021/08/12 03:28:31;;;;;;;;;;;;;;;;;;4947762;28;19962;-80
2021/08/12 03:30:58;;;;;;;;;;;;;;;;;;4937262;28;20056;-80
2021/08/12 03:33:24;;;;;;;;;;;;;;;;;;4932963;28;19950;-80
2021/08/12 03:35:50;;;;;;;;;;;;;;;;;;4944793;28;19962;-81
2021/08/12 03:38:17;;;;;;;;;;;;;;;;;;4941030;28;19926;-81
2021/08/12 03:40:43;;;;;;;;;;;;;;;;;;4939955;29;19973;-81
2021/08/12 03:43:09;;;;;;;;;;;;;;;;;;4928660;28;19950;-81
2021/08/12 03:45:35;;;;;;;;;;;;;;;;;;4940943;28;19969;-81
2021/08/12 03:48:01;;;;;;;;;;;;;;;;;;4942314;28;19970;-80
2021/08/12 03:50:27;;;;;;;;;;;;;;;;;;4938141;28;20065;-81
2021/08/12 03:52:54;;;;;;;;;;;;;;;;;;4928847;29;19978;-81
2021/08/12 03:55:20;;;;;;;;;;;;;;;;;;4938321;29;19961;-81
2021/08/12 03:57:47;;;;;;;;;;;;;;;;;;4936271;28;19958;-81
2021/08/12 04:00:13;;;;;;;;;;;;;;;;;;4941138;29;20350;-80
2021/08/12 04:02:39;;;;;;;;;;;;;;;;;;4942949;28;20356;-80
2021/08/12 04:05:05;;;;;;;;;;;;;;;;;;4936623;28;20375;-81
2021/08/12 04:07:32;;;;;;;;;;;;;;;;;;4926708;29;19963;-83
2021/08/12 04:09:58;;;;;;;;;;;;;;;;;;4932219;28;19958;-81
2021/08/12 04:12:24;;;;;;;;;;;;;;;;;;4919014;29;19966;-83
2021/08/12 04:14:50;;;;;;;;;;;;;;;;;;4937747;28;19957;-83
2021/08/12 04:17:16;;;;;;;;;;;;;;;;;;4936428;29;19973;-81
2021/08/12 04:19:43;;;;;;;;;;;;;;;;;;4942559;28;20050;-81
2021/08/12 04:22:09;;;;;;;;;;;;;;;;;;4930924;29;19964;-81
2021/08/12 04:24:35;;;;;;;;;;;;;;;;;;4940054;29;19961;-82
2021/08/12 04:27:01;;;;;;;;;;;;;;;;;;4941279;28;19969;-83
2021/08/12 04:29:28;;;;;;;;;;;;;;;;;;4945107;29;20020;-82
2021/08/12 04:31:54;;;;;;;;;;;;;;;;;;4916596;29;20607;-83
2021/08/12 04:34:20;;;;;;;;;;;;;;;;;;4943306;28;19986;-81
2021/08/12 04:36:46;;;;;;;;;;;;;;;;;;4945018;28;20445;-81
2021/08/12 04:39:13;;;;;;;;;;;;;;;;;;4937742;29;19958;-80
2021/08/12 04:41:39;;;;;;;;;;;;;;;;;;4942320;28;19970;-80
2021/08/12 04:44:05;;;;;;;;;;;;;;;;;;4935500;29;19958;-81
2021/08/12 04:46:31;;;;;;;;;;;;;;;;;;4937361;28;19953;-81
2021/08/12 04:48:57;;;;;;;;;;;;;;;;;;4940889;28;19953;-82
2021/08/12 04:51:24;;;;;;;;;;;;;;;;;;4919046;29;20016;-79
2021/08/12 04:53:50;;;;;;;;;;;;;;;;;;4932786;28;19923;-81
2021/08/12 04:56:16;;;;;;;;;;;;;;;;;;4938583;28;19960;-82
2021/08/12 04:58:42;;;;;;;;;;;;;;;;;;4931233;29;19926;-83
2021/08/12 05:01:08;;;;;;;;;;;;;;;;;;4946352;28;20237;-83
2021/08/12 05:03:35;;;;;;;;;;;;;;;;;;4939274;29;19919;-83
2021/08/12 05:06:01;;;;;;;;;;;;;;;;;;4939424;28;19973;-83
2021/08/12 05:08:27;;;;;;;;;;;;;;;;;;4940192;28;20923;-82
2021/08/12 05:10:53;;;;;;;;;;;;;;;;;;4931808;29;19962;-80
2021/08/12 05:13:19;;;;;;;;;;;;;;;;;;4935853;28;19956;-80
2021/08/12 05:15:46;;;;;;;;;;;;;;;;;;4936917;28;19915;-80
2021/08/12 05:18:12;;;;;;;;;;;;;;;;;;4934280;28;19977;-81
2021/08/12 05:20:38;;;;;;;;;;;;;;;;;;4934543;28;19970;-80
2021/08/12 05:23:05;;;;;;;;;;;;;;;;;;4934280;28;19937;-81
2021/08/12 05:25:31;;;;;;;;;;;;;;;;;;4937567;28;19962;-80
2021/08/12 05:27:57;;;;;;;;;;;;;;;;;;4941803;28;20076;-81
2021/08/12 05:30:23;;;;;;;;;;;;;;;;;;4925609;29;19954;-80
2021/08/12 05:32:49;;;;;;;;;;;;;;;;;;4940209;28;19950;-80
2021/08/12 05:35:15;;;;;;;;;;;;;;;;;;4941140;28;19981;-79
2021/08/12 05:37:42;;;;;;;;;;;;;;;;;;4943148;29;19966;-79
2021/08/12 05:40:08;;;;;;;;;;;;;;;;;;4930881;29;19969;-79
2021/08/12 05:42:34;;;;;;;;;;;;;;;;;;4946396;28;19937;-79
2021/08/12 05:45:00;;;;;;;;;;;;;;;;;;4954195;28;19965;-80
2021/08/12 05:47:26;;;;;;;;;;;;;;;;;;4938610;28;19957;-79
2021/08/12 05:49:53;;;;;;;;;;;;;;;;;;4939343;28;19965;-80
2021/08/12 05:52:19;;;;;;;;;;;;;;;;;;4950352;28;19950;-79
2021/08/12 05:54:45;;;;;;;;;;;;;;;;;;4943208;29;20009;-79
2021/08/12 05:57:11;;;;;;;;;;;;;;;;;;4924632;29;19926;-80
2021/08/12 05:59:37;;;;;;;;;;;;;;;;;;4942784;28;19974;-80
2021/08/12 06:02:04;;;;;;;;;;;;;;;;;;4947582;28;19965;-81
2021/08/12 06:04:30;;;;;;;;;;;;;;;;;;4931652;29;19965;-80
2021/08/12 06:06:56;;;;;;;;;;;;;;;;;;4937250;28;19961;-80
2021/08/12 06:09:22;;;;;;;;;;;;;;;;;;4941336;29;19988;-80
2021/08/12 06:11:48;;;;;;;;;;;;;;;;;;4938443;28;20430;-80
2021/08/12 06:14:15;;;;;;;;;;;;;;;;;;4944930;28;19965;-80
2021/08/12 06:16:41;;;;;;;;;;;;;;;;;;4937797;29;20671;-80
2021/08/12 06:19:07;;;;;;;;;;;;;;;;;;4937515;29;19973;-80
2021/08/12 06:21:33;;;;;;;;;;;;;;;;;;4942113;28;19953;-79
2021/08/12 06:24:00;;;;;;;;;;;;;;;;;;4929669;29;19958;-80
2021/08/12 06:26:26;;;;;;;;;;;;;;;;;;4940574;29;19922;-80
2021/08/12 06:28:52;;;;;;;;;;;;;;;;;;4948053;28;20004;-80
2021/08/12 06:31:18;;;;;;;;;;;;;;;;;;4945482;28;19954;-80
2021/08/12 06:33:45;;;;;;;;;;;;;;;;;;4949555;28;19922;-80
2021/08/12 06:36:11;;;;;;;;;;;;;;;;;;4935209;28;19962;-80
2021/08/12 06:38:37;;;;;;;;;;;;;;;;;;4941244;28;19922;-80
2021/08/12 06:41:03;;;;;;;;;;;;;;;;;;4944400;28;19946;-79
2021/08/12 06:43:29;;;;;;;;;;;;;;;;;;4926711;29;19958;-80
2021/08/12 06:45:56;;;;;;;;;;;;;;;;;;4923924;29;19965;-80
2021/08/12 06:48:22;;;;;;;;;;;;;;;;;;4938697;28;20448;-79
2021/08/12 06:50:48;;;;;;;;;;;;;;;;;;4938909;29;19989;-81
2021/08/12 06:53:15;;;;;;;;;;;;;;;;;;4935889;29;19929;-79
2021/08/12 06:55:41;;;;;;;;;;;;;;;;;;4930898;28;19953;-80
2021/08/12 06:58:07;;;;;;;;;;;;;;;;;;4914947;29;20442;-80
2021/08/12 07:00:33;;;;;;;;;;;;;;;;;;4943856;28;19966;-80
2021/08/12 07:03:00;;;;;;;;;;;;;;;;;;4936591;29;19961;-79
2021/08/12 07:05:26;;;;;;;;;;;;;;;;;;4935777;28;19953;-79
2021/08/12 07:07:52;;;;;;;;;;;;;;;;;;4934427;28;20086;-78
2021/08/12 07:10:18;;;;;;;;;;;;;;;;;;4938098;29;19927;-79
2021/08/12 07:12:45;;;;;;;;;;;;;;;;;;4944537;28;19992;-79
2021/08/12 07:15:11;;;;;;;;;;;;;;;;;;4938318;28;19985;-80
2021/08/12 07:17:37;;;;;;;;;;;;;;;;;;4947642;28;19965;-81
2021/08/12 07:20:03;;;;;;;;;;;;;;;;;;4934610;29;19966;-78
2021/08/12 07:22:29;;;;;;;;;;;;;;;;;;4938669;28;19966;-79
2021/08/12 07:24:56;;;;;;;;;;;;;;;;;;4940122;28;19923;-79
2021/08/12 07:27:22;;;;;;;;;;;;;;;;;;4940428;29;19919;-80
2021/08/12 07:29:49;;;;;;;;;;;;;;;;;;4927479;29;20369;-79
2021/08/12 07:32:15;;;;;;;;;;;;;;;;;;4940080;28;19954;-80
2021/08/12 07:34:41;;;;;;;;;;;;;;;;;;4946984;28;19958;-79
2021/08/12 07:37:08;;;;;;;;;;;;;;;;;;4945571;28;19962;-79
2021/08/12 07:39:34;;;;;;;;;;;;;;;;;;4941344;28;20012;-80
2021/08/12 07:42:00;;;;;;;;;;;;;;;;;;4934135;28;19961;-80
2021/08/12 07:44:26;;;;;;;;;;;;;;;;;;4936858;29;19927;-80
2021/08/12 07:46:52;;;;;;;;;;;;;;;;;;4935717;28;19950;-81
2021/08/12 07:49:19;;;;;;;;;;;;;;;;;;4939845;28;19993;-82
2021/08/12 07:51:45;;;;;;;;;;;;;;;;;;4954568;28;19919;-82
2021/08/12 07:54:11;;;;;;;;;;;;;;;;;;4934097;28;19922;-81
2021/08/12 07:56:37;;;;;;;;;;;;;;;;;;4943188;28;19950;-82
2021/08/12 07:59:04;;;;;;;;;;;;;;;;;;4945064;28;20009;-82
2021/08/12 08:01:30;;;;;;;;;;;;;;;;;;4918509;29;19962;-82
2021/08/12 08:03:58;;;;;;;;;;;;;;;;;;4925631;29;20407;-81
2021/08/12 08:06:25;;;;;;;;;;;;;;;;;;4939689;28;20365;-82
2021/08/12 08:08:51;;;;;;;;;;;;;;;;;;4924961;29;19923;-81
2021/08/12 08:11:17;;;;;;;;;;;;;;;;;;4940192;28;19958;-82
2021/08/12 08:13:44;;;;;;;;;;;;;;;;;;4936282;28;19953;-81
2021/08/12 08:16:10;;;;;;;;;;;;;;;;;;4932687;28;20074;-81
2021/08/12 08:18:36;;;;;;;;;;;;;;;;;;4943493;28;20019;-81
2021/08/12 08:21:03;;;;;;;;;;;;;;;;;;4942426;28;19962;-82
2021/08/12 08:23:29;;;;;;;;;;;;;;;;;;4947022;28;20452;-80
2021/08/12 08:25:55;;;;;;;;;;;;;;;;;;4930158;29;19962;-82
2021/08/12 08:28:21;;;;;;;;;;;;;;;;;;4944610;28;19970;-81
2021/08/12 08:30:48;;;;;;;;;;;;;;;;;;4936087;29;19950;-81
2021/08/12 08:33:14;;;;;;;;;;;;;;;;;;4929007;28;20005;-81
2021/08/12 08:35:40;;;;;;;;;;;;;;;;;;4945300;28;19965;-81
2021/08/12 08:38:06;;;;;;;;;;;;;;;;;;4942796;28;19958;-81
2021/08/12 08:40:32;;;;;;;;;;;;;;;;;;4951018;28;19970;-82
2021/08/12 08:42:59;;;;;;;;;;;;;;;;;;4948299;29;19981;-81
2021/08/12 08:45:28;;;;;;;;;;;;;;;;;;4952646;28;20037;-81
2021/08/12 08:47:54;;;;;;;;;;;;;;;;;;4942789;28;19929;-81
2021/08/12 08:50:20;;;;;;;;;;;;;;;;;;4944300;28;19950;-82
2021/08/12 08:52:47;;;;;;;;;;;;;;;;;;4941635;28;19962;-83
2021/08/12 08:55:13;;;;;;;;;;;;;;;;;;4948075;28;20045;-83
2021/08/12 08:57:39;;;;;;;;;;;;;;;;;;4942132;28;19958;-83
2021/08/12 09:00:05;;;;;;;;;;;;;;;;;;4943186;28;19958;-82
2021/08/12 09:02:31;;;;;;;;;;;;;;;;;;4942276;29;19963;-82
2021/08/12 09:04:57;;;;;;;;;;;;;;;;;;4934260;28;20358;-83
2021/08/12 09:07:24;;;;;;;;;;;;;;;;;;4927336;28;19964;-82
2021/08/12 09:09:50;;;;;;;;;;;;;;;;;;4926037;28;19922;-82
2021/08/12 09:12:16;;;;;;;;;;;;;;;;;;4939234;28;20004;-82
2021/08/12 09:14:42;;;;;;;;;;;;;;;;;;4938431;28;20387;-82
2021/08/12 09:17:09;;;;;;;;;;;;;;;;;;4938021;28;19966;-84
2021/08/12 09:19:36;;;;;;;;;;;;;;;;;;4927088;29;20025;-82
2021/08/12 09:22:02;;;;;;;;;;;;;;;;;;4932234;28;20351;-82
2021/08/12 09:24:28;;;;;;;;;;;;;;;;;;4918653;29;20016;-82
2021/08/12 09:26:55;;;;;;;;;;;;;;;;;;4937503;28;19974;-82
2021/08/12 09:29:23;;;;;;;;;;;;;;;;;;4937382;28;19922;-82
2021/08/12 09:31:49;;;;;;;;;;;;;;;;;;4933336;28;19923;-83
2021/08/12 09:34:15;;;;;;;;;;;;;;;;;;4935292;28;20552;-80
2021/08/12 09:36:42;;;;;;;;;;;;;;;;;;4933831;29;19954;-81
2021/08/12 09:39:08;;;;;;;;;;;;;;;;;;4933900;28;19954;-81
2021/08/12 09:41:35;;;;;;;;;;;;;;;;;;4934743;29;19980;-81
2021/08/12 09:44:01;;;;;;;;;;;;;;;;;;4937313;28;19937;-81
2021/08/12 09:46:27;;;;;;;;;;;;;;;;;;4921795;28;19962;-82
2021/08/12 09:48:54;;;;;;;;;;;;;;;;;;4930030;29;19975;-81
2021/08/12 09:51:20;;;;;;;;;;;;;;;;;;4942778;28;19966;-81
2021/08/12 09:53:46;;;;;;;;;;;;;;;;;;4942354;28;19962;-81
2021/08/12 09:56:12;;;;;;;;;;;;;;;;;;4943979;28;19993;-81
2021/08/12 09:58:38;;;;;;;;;;;;;;;;;;4945074;28;19968;-81
2021/08/12 10:01:05;;;;;;;;;;;;;;;;;;4931375;29;20042;-80
2021/08/12 10:03:31;;;;;;;;;;;;;;;;;;4926568;29;19954;-81
2021/08/12 10:05:57;;;;;;;;;;;;;;;;;;4940640;28;20032;-81
2021/08/12 10:08:23;;;;;;;;;;;;;;;;;;4938902;28;20430;-81
2021/08/12 10:10:50;;;;;;;;;;;;;;;;;;4935598;28;20470;-81
2021/08/12 10:13:16;;;;;;;;;;;;;;;;;;4931511;28;20191;-82
2021/08/12 10:15:48;;;;;;;;;;;;;;;;;;4936408;28;19978;-81
2021/08/12 10:18:14;;;;;;;;;;;;;;;;;;4941032;28;19953;-81
2021/08/12 10:20:41;;;;;;;;;;;;;;;;;;4941213;28;19937;-81
2021/08/12 10:23:07;;;;;;;;;;;;;;;;;;4938234;29;19966;-82
2021/08/12 10:25:36;;;;;;;;;;;;;;;;;;4950366;28;19950;-81
2021/08/12 10:28:02;;;;;;;;;;;;;;;;;;4944763;28;20028;-80
2021/08/12 10:30:28;;;;;;;;;;;;;;;;;;4937580;28;19962;-81
2021/08/12 10:32:55;;;;;;;;;;;;;;;;;;4936084;29;19989;-81
2021/08/12 10:35:21;;;;;;;;;;;;;;;;;;4925928;29;19926;-81
2021/08/12 10:37:48;;;;;;;;;;;;;;;;;;4935021;29;20350;-81
2021/08/12 10:40:15;;;;;;;;;;;;;;;;;;4943039;28;19982;-81
2021/08/12 10:42:41;;;;;;;;;;;;;;;;;;4936310;29;19962;-83
2021/08/12 10:45:07;;;;;;;;;;;;;;;;;;4951820;28;20021;-81
2021/08/12 10:47:33;;;;;;;;;;;;;;;;;;4941616;28;20026;-81
2021/08/12 10:49:59;;;;;;;;;;;;;;;;;;4920988;29;19957;-81
2021/08/12 10:52:26;;;;;;;;;;;;;;;;;;4938110;28;19961;-81
2021/08/12 10:54:52;;;;;;;;;;;;;;;;;;4937215;28;19957;-81
2021/08/12 10:57:18;;;;;;;;;;;;;;;;;;4939125;28;19972;-80
2021/08/12 10:59:44;;;;;;;;;;;;;;;;;;4941089;28;19969;-80
2021/08/12 11:02:11;;;;;;;;;;;;;;;;;;4936701;29;19961;-81
2021/08/12 11:04:37;;;;;;;;;;;;;;;;;;4942098;28;19958;-80
2021/08/12 11:07:03;;;;;;;;;;;;;;;;;;4924539;29;20482;-80
2021/08/12 11:09:29;;;;;;;;;;;;;;;;;;4938238;28;19957;-80
2021/08/12 11:11:56;;;;;;;;;;;;;;;;;;4938353;29;20473;-80
2021/08/12 11:14:22;;;;;;;;;;;;;;;;;;4925762;28;20263;-80
2021/08/12 11:16:49;;;;;;;;;;;;;;;;;;4939843;28;19958;-80
2021/08/12 11:19:15;;;;;;;;;;;;;;;;;;4945399;28;19964;-81
2021/08/12 11:21:42;;;;;;;;;;;;;;;;;;4933332;29;19935;-80
2021/08/12 11:24:08;;;;;;;;;;;;;;;;;;4943227;28;19954;-80
2021/08/12 11:26:34;;;;;;;;;;;;;;;;;;4944700;28;20328;-81
2021/08/12 11:29:01;;;;;;;;;;;;;;;;;;4940287;29;20374;-81
2021/08/12 11:31:28;;;;;;;;;;;;;;;;;;4938985;28;19923;-82
2021/08/12 11:33:57;;;;;;;;;;;;;;;;;;4926216;29;19929;-81
2021/08/12 11:36:24;;;;;;;;;;;;;;;;;;4932166;28;19923;-82
2021/08/12 11:38:50;;;;;;;;;;;;;;;;;;4943512;28;20009;-81
2021/08/12 11:41:16;;;;;;;;;;;;;;;;;;4946447;28;19982;-82
2021/08/12 11:43:42;;;;;;;;;;;;;;;;;;4940876;28;20730;-81
2021/08/12 11:46:09;;;;;;;;;;;;;;;;;;4935411;28;19950;-82
2021/08/12 11:48:35;;;;;;;;;;;;;;;;;;4945902;28;19982;-81
2021/08/12 11:51:01;;;;;;;;;;;;;;;;;;4912262;29;19966;-82
2021/08/12 11:53:27;;;;;;;;;;;;;;;;;;4921828;29;19962;-82
2021/08/12 11:55:53;;;;;;;;;;;;;;;;;;4943487;28;20032;-82
2021/08/12 11:58:19;;;;;;;;;;;;;;;;;;4944263;28;19957;-81
2021/08/12 12:00:46;;;;;;;;;;;;;;;;;;4929997;28;19969;-82
2021/08/12 12:03:13;;;;;;;;;;;;;;;;;;4941043;28;20001;-82
2021/08/12 12:05:41;;;;;;;;;;;;;;;;;;4939694;29;19964;-81
2021/08/12 12:08:10;;;;;;;;;;;;;;;;;;4937438;28;19961;-81
2021/08/12 12:10:37;;;;;;;;;;;;;;;;;;4945302;29;20008;-82
2021/08/12 12:13:03;;;;;;;;;;;;;;;;;;4928096;28;20080;-81
2021/08/12 12:15:29;;;;;;;;;;;;;;;;;;4942871;28;19973;-81
2021/08/12 12:17:56;;;;;;;;;;;;;;;;;;4951794;28;20445;-81
2021/08/12 12:20:24;;;;;;;;;;;;;;;;;;4938721;28;19981;-81
2021/08/12 12:22:50;;;;;;;;;;;;;;;;;;4934839;29;19930;-82
2021/08/12 12:25:17;;;;;;;;;;;;;;;;;;4955397;28;19918;-82
2021/08/12 12:27:43;;;;;;;;;;;;;;;;;;4933500;28;20001;-82
2021/08/12 12:30:09;;;;;;;;;;;;;;;;;;4937977;28;20536;-82
2021/08/12 12:32:35;;;;;;;;;;;;;;;;;;4945102;29;19964;-80
2021/08/12 12:35:05;;;;;;;;;;;;;;;;;;4951513;28;19969;-82
2021/08/12 12:37:31;;;;;;;;;;;;;;;;;;4943365;28;19954;-83
2021/08/12 12:39:57;;;;;;;;;;;;;;;;;;4934196;28;20331;-82
2021/08/12 12:42:24;;;;;;;;;;;;;;;;;;4936970;28;20382;-83
2021/08/12 12:44:51;;;;;;;;;;;;;;;;;;4938720;28;19927;-83
2021/08/12 12:47:17;;;;;;;;;;;;;;;;;;4943994;28;19958;-83
2021/08/12 12:49:43;;;;;;;;;;;;;;;;;;4940654;28;20034;-83
2021/08/12 12:52:09;;;;;;;;;;;;;;;;;;4941912;28;19961;-84
2021/08/12 12:54:35;;;;;;;;;;;;;;;;;;4939175;28;19992;-81
2021/08/12 12:57:02;;;;;;;;;;;;;;;;;;4937441;28;19966;-80
2021/08/12 12:59:28;;;;;;;;;;;;;;;;;;4930839;28;19955;-80
2021/08/12 13:01:54;;;;;;;;;;;;;;;;;;4943908;28;19973;-81
2021/08/12 13:04:21;;;;;;;;;;;;;;;;;;4929533;29;19954;-82
2021/08/12 13:06:47;;;;;;;;;;;;;;;;;;4936530;28;20014;-81
2021/08/12 13:09:14;;;;;;;;;;;;;;;;;;4943572;28;20357;-81
2021/08/12 13:11:41;;;;;;;;;;;;;;;;;;4932460;28;19961;-81
2021/08/12 13:14:07;;;;;;;;;;;;;;;;;;4936908;28;20445;-80
2021/08/12 13:16:33;;;;;;;;;;;;;;;;;;4935882;28;19961;-80
2021/08/12 13:19:00;;;;;;;;;;;;;;;;;;4938310;28;19922;-79
2021/08/12 13:21:26;;;;;;;;;;;;;;;;;;4935178;28;19970;-85
2021/08/12 13:23:52;;;;;;;;;;;;;;;;;;4916683;29;20481;-79
2021/08/12 13:26:18;;;;;;;;;;;;;;;;;;4920890;29;19962;-78
2021/08/12 13:28:44;;;;;;;;;;;;;;;;;;4935567;29;19958;-79
2021/08/12 13:31:11;;;;;;;;;;;;;;;;;;4934326;28;19961;-77
2021/08/12 13:33:37;;;;;;;;;;;;;;;;;;4939492;29;20697;-78
2021/08/12 13:36:03;;;;;;;;;;;;;;;;;;4932771;28;19949;-78
2021/08/12 13:38:29;;;;;;;;;;;;;;;;;;4930492;29;19962;-77
2021/08/12 13:40:56;;;;;;;;;;;;;;;;;;4938541;28;20415;-78
2021/08/12 13:43:23;;;;;;;;;;;;;;;;;;4938174;28;19959;-78
2021/08/12 13:45:49;;;;;;;;;;;;;;;;;;4937451;28;20280;-77
2021/08/12 13:48:15;;;;;;;;;;;;;;;;;;4942846;28;19969;-79
2021/08/12 13:50:41;;;;;;;;;;;;;;;;;;4934237;28;20613;-77
2021/08/12 13:53:07;;;;;;;;;;;;;;;;;;4931465;29;19966;-79
2021/08/12 13:55:34;;;;;;;;;;;;;;;;;;4937721;28;19923;-78
2021/08/12 13:58:00;;;;;;;;;;;;;;;;;;4944932;28;19962;-78
2021/08/12 14:00:26;;;;;;;;;;;;;;;;;;4942165;28;20646;-79
2021/08/12 14:02:53;;;;;;;;;;;;;;;;;;4942692;28;19965;-79
2021/08/12 14:05:19;;;;;;;;;;;;;;;;;;4939728;28;19984;-80
2021/08/12 14:07:45;;;;;;;;;;;;;;;;;;4936178;28;19957;-80
2021/08/12 14:10:11;;;;;;;;;;;;;;;;;;4937354;28;19965;-79
2021/08/12 14:12:38;;;;;;;;;;;;;;;;;;4941488;29;20646;-80
2021/08/12 14:15:04;;;;;;;;;;;;;;;;;;4960350;28;19953;-79
2021/08/12 14:17:30;;;;;;;;;;;;;;;;;;4960008;28;20015;-79
2021/08/12 14:19:56;;;;;;;;;;;;;;;;;;4947680;28;19946;-79
2021/08/12 14:22:23;;;;;;;;;;;;;;;;;;4942013;28;20468;-79
2021/08/12 14:24:49;;;;;;;;;;;;;;;;;;4942922;29;19950;-79
2021/08/12 14:27:15;;;;;;;;;;;;;;;;;;4933090;29;19955;-79
2021/08/12 14:29:41;;;;;;;;;;;;;;;;;;4948627;29;20026;-79
2021/08/12 14:32:07;;;;;;;;;;;;;;;;;;4943205;28;20115;-78
2021/08/12 14:34:34;;;;;;;;;;;;;;;;;;4939900;28;19943;-80
2021/08/12 14:37:00;;;;;;;;;;;;;;;;;;4946140;28;19949;-78
2021/08/12 14:39:27;;;;;;;;;;;;;;;;;;4940330;28;19954;-79
2021/08/12 14:41:53;;;;;;;;;;;;;;;;;;4942012;28;19935;-78
2021/08/12 14:44:19;;;;;;;;;;;;;;;;;;4944242;28;19964;-79
2021/08/12 14:46:46;;;;;;;;;;;;;;;;;;4940884;28;19958;-79
2021/08/12 14:49:12;;;;;;;;;;;;;;;;;;4939046;28;20350;-79
2021/08/12 14:51:39;;;;;;;;;;;;;;;;;;4923933;29;19966;-78
2021/08/12 14:54:05;;;;;;;;;;;;;;;;;;4940920;28;20009;-79
2021/08/12 14:56:31;;;;;;;;;;;;;;;;;;4948611;28;19970;-79
2021/08/12 14:58:57;;;;;;;;;;;;;;;;;;4922924;29;20391;-79
2021/08/12 15:01:23;;;;;;;;;;;;;;;;;;4938754;28;20406;-79
2021/08/12 15:03:50;;;;;;;;;;;;;;;;;;4942348;28;19962;-79
2021/08/12 15:06:16;;;;;;;;;;;;;;;;;;4945943;28;19962;-79
2021/08/12 15:08:43;;;;;;;;;;;;;;;;;;4937860;29;19923;-78
2021/08/12 15:11:09;;;;;;;;;;;;;;;;;;4941755;28;19962;-80
2021/08/12 15:13:35;;;;;;;;;;;;;;;;;;4942696;28;20322;-78
2021/08/12 15:16:01;;;;;;;;;;;;;;;;;;4944511;28;19968;-78
2021/08/12 15:18:27;;;;;;;;;;;;;;;;;;4943880;28;20254;-78
2021/08/12 15:20:54;;;;;;;;;;;;;;;;;;4947744;28;19961;-79
2021/08/12 15:23:20;;;;;;;;;;;;;;;;;;4945307;28;20029;-78
2021/08/12 15:25:46;;;;;;;;;;;;;;;;;;4945668;28;19964;-80
2021/08/12 15:28:13;;;;;;;;;;;;;;;;;;4942680;28;19954;-78
2021/08/12 15:30:39;;;;;;;;;;;;;;;;;;4939096;28;19989;-78
2021/08/12 15:33:06;;;;;;;;;;;;;;;;;;4934257;28;19957;-78
2021/08/12 15:35:32;;;;;;;;;;;;;;;;;;4936876;29;19929;-78
2021/08/12 15:38:00;;;;;;;;;;;;;;;;;;4944395;28;19958;-79
2021/08/12 15:40:26;;;;;;;;;;;;;;;;;;4942962;28;21549;-79
2021/08/12 15:42:52;;;;;;;;;;;;;;;;;;4946227;28;20024;-79
2021/08/12 15:45:18;;;;;;;;;;;;;;;;;;4940288;28;19965;-79
2021/08/12 15:47:45;;;;;;;;;;;;;;;;;;4942389;29;19930;-79
2021/08/12 15:50:11;;;;;;;;;;;;;;;;;;4943365;28;19965;-79
2021/08/12 15:52:38;;;;;;;;;;;;;;;;;;4932932;29;19950;-79
2021/08/12 15:55:06;;;;;;;;;;;;;;;;;;4952390;28;20353;-78
2021/08/12 15:57:33;;;;;;;;;;;;;;;;;;4926469;29;20329;-78
2021/08/12 15:59:59;;;;;;;;;;;;;;;;;;4943394;28;20005;-78
2021/08/12 16:02:25;;;;;;;;;;;;;;;;;;4941165;28;21530;-79
2021/08/12 16:04:51;;;;;;;;;;;;;;;;;;4946590;28;19929;-78
2021/08/12 16:07:18;;;;;;;;;;;;;;;;;;4943333;29;19978;-78
2021/08/12 16:09:44;;;;;;;;;;;;;;;;;;4942258;28;19923;-78
2021/08/12 16:12:10;;;;;;;;;;;;;;;;;;4946057;28;19950;-79
2021/08/12 16:14:36;;;;;;;;;;;;;;;;;;4953922;28;20278;-79
2021/08/12 16:17:02;;;;;;;;;;;;;;;;;;4946007;28;20027;-79
2021/08/12 16:19:29;;;;;;;;;;;;;;;;;;4952542;28;20080;-79
2021/08/12 16:21:55;;;;;;;;;;;;;;;;;;4952307;28;19946;-78
2021/08/12 16:24:21;;;;;;;;;;;;;;;;;;4938455;28;19922;-77
2021/08/12 16:26:47;;;;;;;;;;;;;;;;;;4948412;28;19950;-78
2021/08/12 16:29:13;;;;;;;;;;;;;;;;;;4939028;28;19954;-78
2021/08/12 16:31:40;;;;;;;;;;;;;;;;;;4929238;29;19989;-80
2021/08/12 16:34:06;;;;;;;;;;;;;;;;;;4939432;28;20335;-78
2021/08/12 16:36:32;;;;;;;;;;;;;;;;;;4942582;28;19961;-78
2021/08/12 16:39:00;;;;;;;;;;;;;;;;;;4931292;28;19976;-78